sensor_id;sensor_type;location;lat;lon;timestamp;pressure;altitude;pressure_sealevel;temperature;humidity
45894;BME280;31603;51.148;16.932;2022-09-04T00:02:36;100502.28;;;13.79;100.00
45894;BME280;31603;51.148;16.932;2022-09-04T00:05:14;100492.38;;;13.65;100.00
45894;BME280;31603;51.148;16.932;2022-09-04T00:07:53;100477.31;;;13.61;100.00
45894;BME280;31603;51.148;16.932;2022-09-04T00:10:28;100501.16;;;13.62;100.00
45894;BME280;31603;51.148;16.932;2022-09-04T00:13:02;100468.38;;;13.34;100.00
45894;BME280;31603;51.148;16.932;2022-09-04T00:15:35;100495.13;;;13.40;100.00
45894;BME280;31603;51.148;16.932;2022-09-04T00:18:09;100504.59;;;13.51;100.00
45894;BME280;31603;51.148;16.932;2022-09-04T00:20:41;100499.88;;;13.26;100.00
45894;BME280;31603;51.148;16.932;2022-09-04T00:23:16;100506.03;;;13.60;100.00
45894;BME280;31603;51.148;16.932;2022-09-04T00:25:52;100489.38;;;13.41;100.00
45894;BME280;31603;51.148;16.932;2022-09-04T00:28:31;100483.41;;;13.44;100.00
45894;BME280;31603;51.148;16.932;2022-09-04T00:31:04;100498.25;;;13.43;100.00
45894;BME280;31603;51.148;16.932;2022-09-04T00:33:37;100488.53;;;13.41;100.00
45894;BME280;31603;51.148;16.932;2022-09-04T00:36:08;100504.00;;;13.48;100.00
45894;BME280;31603;51.148;16.932;2022-09-04T00:38:41;100506.63;;;13.37;100.00
45894;BME280;31603;51.148;16.932;2022-09-04T00:41:10;100522.16;;;13.31;100.00
45894;BME280;31603;51.148;16.932;2022-09-04T00:43:55;100530.56;;;13.43;100.00
45894;BME280;31603;51.148;16.932;2022-09-04T00:46:48;100521.63;;;13.47;100.00
45894;BME280;31603;51.148;16.932;2022-09-04T00:49:33;100521.63;;;13.47;100.00
45894;BME280;31603;51.148;16.932;2022-09-04T00:52:22;100518.69;;;13.42;100.00
45894;BME280;31603;51.148;16.932;2022-09-04T00:55:06;100528.47;;;13.38;100.00
45894;BME280;31603;51.148;16.932;2022-09-04T00:58:02;100523.47;;;13.15;100.00
45894;BME280;31603;51.148;16.932;2022-09-04T01:00:32;100530.25;;;13.26;100.00
45894;BME280;31603;51.148;16.932;2022-09-04T01:03:22;100532.31;;;13.37;100.00
45894;BME280;31603;51.148;16.932;2022-09-04T01:06:07;100534.34;;;13.55;100.00
45894;BME280;31603;51.148;16.932;2022-09-04T01:08:54;100536.03;;;13.56;100.00
45894;BME280;31603;51.148;16.932;2022-09-04T01:11:30;100540.34;;;13.45;100.00
45894;BME280;31603;51.148;16.932;2022-09-04T01:14:07;100524.84;;;13.44;100.00
45894;BME280;31603;51.148;16.932;2022-09-04T01:16:42;100541.09;;;13.66;100.00
45894;BME280;31603;51.148;16.932;2022-09-04T01:19:23;100521.81;;;13.53;100.00
45894;BME280;31603;51.148;16.932;2022-09-04T01:22:11;100532.88;;;13.53;100.00
45894;BME280;31603;51.148;16.932;2022-09-04T01:24:53;100509.06;;;13.07;100.00
45894;BME280;31603;51.148;16.932;2022-09-04T01:27:29;100512.03;;;13.12;100.00
45894;BME280;31603;51.148;16.932;2022-09-04T01:30:03;100534.09;;;13.57;100.00
45894;BME280;31603;51.148;16.932;2022-09-04T01:32:38;100536.91;;;13.50;100.00
45894;BME280;31603;51.148;16.932;2022-09-04T01:35:14;100531.59;;;13.55;100.00
45894;BME280;31603;51.148;16.932;2022-09-04T01:38:01;100532.75;;;13.34;100.00
45894;BME280;31603;51.148;16.932;2022-09-04T01:40:38;100534.06;;;13.25;100.00
45894;BME280;31603;51.148;16.932;2022-09-04T01:43:12;100532.75;;;13.34;100.00
45894;BME280;31603;51.148;16.932;2022-09-04T01:48:54;100519.31;;;13.44;100.00
45894;BME280;31603;51.148;16.932;2022-09-04T01:51:33;100537.72;;;13.57;100.00
45894;BME280;31603;51.148;16.932;2022-09-04T01:54:10;100526.94;;;13.49;100.00
45894;BME280;31603;51.148;16.932;2022-09-04T01:56:42;100511.94;;;13.32;100.00
45894;BME280;31603;51.148;16.932;2022-09-04T01:59:18;100525.97;;;13.30;100.00
45894;BME280;31603;51.148;16.932;2022-09-04T02:01:57;100537.94;;;13.56;100.00
45894;BME280;31603;51.148;16.932;2022-09-04T02:04:28;100537.84;;;13.37;100.00
45894;BME280;31603;51.148;16.932;2022-09-04T02:07:04;100539.09;;;13.41;100.00
45894;BME280;31603;51.148;16.932;2022-09-04T02:09:40;100540.19;;;13.34;100.00
45894;BME280;31603;51.148;16.932;2022-09-04T02:12:15;100534.00;;;13.38;100.00
45894;BME280;31603;51.148;16.932;2022-09-04T02:14:57;100491.78;;;12.80;100.00
45894;BME280;31603;51.148;16.932;2022-09-04T02:17:43;100542.41;;;13.12;100.00
45894;BME280;31603;51.148;16.932;2022-09-04T02:20:22;100539.63;;;13.12;100.00
45894;BME280;31603;51.148;16.932;2022-09-04T02:22:57;100501.13;;;12.79;100.00
45894;BME280;31603;51.148;16.932;2022-09-04T02:25:31;100537.69;;;13.26;100.00
45894;BME280;31603;51.148;16.932;2022-09-04T02:28:15;100538.38;;;13.08;100.00
45894;BME280;31603;51.148;16.932;2022-09-04T02:30:55;100536.22;;;13.10;100.00
45894;BME280;31603;51.148;16.932;2022-09-04T02:33:28;100535.03;;;12.92;100.00
45894;BME280;31603;51.148;16.932;2022-09-04T02:36:06;100535.66;;;12.94;100.00
45894;BME280;31603;51.148;16.932;2022-09-04T02:38:40;100525.69;;;12.93;100.00
45894;BME280;31603;51.148;16.932;2022-09-04T02:41:19;100538.44;;;12.94;100.00
45894;BME280;31603;51.148;16.932;2022-09-04T02:44:02;100534.00;;;12.80;100.00
45894;BME280;31603;51.148;16.932;2022-09-04T02:46:38;100526.22;;;12.64;100.00
45894;BME280;31603;51.148;16.932;2022-09-04T02:49:14;100515.78;;;12.66;100.00
45894;BME280;31603;51.148;16.932;2022-09-04T02:51:50;100532.09;;;12.74;100.00
45894;BME280;31603;51.148;16.932;2022-09-04T02:54:39;100534.69;;;12.69;100.00
45894;BME280;31603;51.148;16.932;2022-09-04T02:57:15;100535.28;;;12.84;100.00
45894;BME280;31603;51.148;16.932;2022-09-04T02:59:50;100532.31;;;12.79;100.00
45894;BME280;31603;51.148;16.932;2022-09-04T03:02:28;100535.13;;;12.59;100.00
45894;BME280;31603;51.148;16.932;2022-09-04T03:05:01;100530.91;;;12.57;100.00
45894;BME280;31603;51.148;16.932;2022-09-04T03:07:33;100527.94;;;12.51;100.00
45894;BME280;31603;51.148;16.932;2022-09-04T03:10:07;100547.81;;;12.73;100.00
45894;BME280;31603;51.148;16.932;2022-09-04T03:12:39;100537.22;;;12.70;100.00
45894;BME280;31603;51.148;16.932;2022-09-04T03:15:15;100538.69;;;12.73;100.00
45894;BME280;31603;51.148;16.932;2022-09-04T03:17:52;100522.03;;;12.28;100.00
45894;BME280;31603;51.148;16.932;2022-09-04T03:20:24;100528.16;;;12.50;100.00
45894;BME280;31603;51.148;16.932;2022-09-04T03:22:56;100534.69;;;12.69;100.00
45894;BME280;31603;51.148;16.932;2022-09-04T03:25:49;100533.84;;;12.55;100.00
45894;BME280;31603;51.148;16.932;2022-09-04T03:28:27;100491.81;;;12.66;100.00
45894;BME280;31603;51.148;16.932;2022-09-04T03:31:15;100443.56;;;12.24;100.00
45894;BME280;31603;51.148;16.932;2022-09-04T03:33:51;100527.47;;;12.74;100.00
45894;BME280;31603;51.148;16.932;2022-09-04T03:36:26;100521.88;;;12.88;100.00
45894;BME280;31603;51.148;16.932;2022-09-04T03:39:00;100524.06;;;12.72;100.00
45894;BME280;31603;51.148;16.932;2022-09-04T03:41:37;100536.59;;;12.75;100.00
45894;BME280;31603;51.148;16.932;2022-09-04T03:44:15;100527.06;;;12.64;100.00
45894;BME280;31603;51.148;16.932;2022-09-04T03:46:55;100510.97;;;12.48;100.00
45894;BME280;31603;51.148;16.932;2022-09-04T03:49:34;100523.72;;;12.42;100.00
45894;BME280;31603;51.148;16.932;2022-09-04T03:52:13;100546.16;;;12.52;100.00
45894;BME280;31603;51.148;16.932;2022-09-04T03:57:54;100537.50;;;12.29;100.00
45894;BME280;31603;51.148;16.932;2022-09-04T04:00:23;100548.34;;;12.24;100.00
45894;BME280;31603;51.148;16.932;2022-09-04T04:03:01;100560.22;;;12.24;100.00
45894;BME280;31603;51.148;16.932;2022-09-04T04:05:43;100547.47;;;12.43;100.00
45894;BME280;31603;51.148;16.932;2022-09-04T04:11:16;100550.84;;;12.52;100.00
45894;BME280;31603;51.148;16.932;2022-09-04T04:14:06;100541.09;;;12.49;100.00
45894;BME280;31603;51.148;16.932;2022-09-04T04:16:43;100502.66;;;12.55;100.00
45894;BME280;31603;51.148;16.932;2022-09-04T04:19:34;100560.19;;;12.64;100.00
45894;BME280;31603;51.148;16.932;2022-09-04T04:22:23;100563.78;;;12.51;100.00
45894;BME280;31603;51.148;16.932;2022-09-04T04:25:01;100557.66;;;12.49;100.00
45894;BME280;31603;51.148;16.932;2022-09-04T04:27:48;100558.69;;;12.55;100.00
45894;BME280;31603;51.148;16.932;2022-09-04T04:30:19;100545.31;;;12.45;100.00
45894;BME280;31603;51.148;16.932;2022-09-04T04:33:02;100556.34;;;12.59;100.00
45894;BME280;31603;51.148;16.932;2022-09-04T04:35:39;100561.50;;;12.35;100.00
45894;BME280;31603;51.148;16.932;2022-09-04T04:38:20;100561.47;;;12.48;100.00
45894;BME280;31603;51.148;16.932;2022-09-04T04:41:20;100580.09;;;12.66;100.00
45894;BME280;31603;51.148;16.932;2022-09-04T04:44:01;100573.75;;;12.72;100.00
45894;BME280;31603;51.148;16.932;2022-09-04T04:46:35;100575.97;;;13.09;100.00
45894;BME280;31603;51.148;16.932;2022-09-04T04:49:22;100567.25;;;13.12;100.00
45894;BME280;31603;51.148;16.932;2022-09-04T04:52:10;100575.72;;;13.17;100.00
45894;BME280;31603;51.148;16.932;2022-09-04T04:54:52;100594.47;;;12.95;100.00
45894;BME280;31603;51.148;16.932;2022-09-04T04:57:35;100565.22;;;12.81;100.00
45894;BME280;31603;51.148;16.932;2022-09-04T05:00:10;100554.25;;;12.61;100.00
45894;BME280;31603;51.148;16.932;2022-09-04T05:02:50;100601.00;;;13.14;100.00
45894;BME280;31603;51.148;16.932;2022-09-04T05:05:42;100607.47;;;12.81;100.00
45894;BME280;31603;51.148;16.932;2022-09-04T05:08:24;100592.63;;;12.75;100.00
45894;BME280;31603;51.148;16.932;2022-09-04T05:11:23;100608.47;;;13.07;100.00
45894;BME280;31603;51.148;16.932;2022-09-04T05:14:01;100595.53;;;13.07;100.00
45894;BME280;31603;51.148;16.932;2022-09-04T05:16:35;100616.22;;;13.43;100.00
45894;BME280;31603;51.148;16.932;2022-09-04T05:19:13;100614.22;;;13.63;100.00
45894;BME280;31603;51.148;16.932;2022-09-04T05:21:48;100612.72;;;13.61;100.00
45894;BME280;31603;51.148;16.932;2022-09-04T05:24:21;100620.16;;;13.67;100.00
45894;BME280;31603;51.148;16.932;2022-09-04T05:26:59;100595.97;;;13.56;100.00
45894;BME280;31603;51.148;16.932;2022-09-04T05:29:36;100606.19;;;13.55;100.00
45894;BME280;31603;51.148;16.932;2022-09-04T05:32:15;100554.69;;;13.29;100.00
45894;BME280;31603;51.148;16.932;2022-09-04T05:34:58;100607.88;;;13.94;100.00
45894;BME280;31603;51.148;16.932;2022-09-04T05:37:32;100616.25;;;13.81;100.00
45894;BME280;31603;51.148;16.932;2022-09-04T05:40:05;100534.19;;;13.43;100.00
45894;BME280;31603;51.148;16.932;2022-09-04T05:42:56;100620.00;;;13.93;100.00
45894;BME280;31603;51.148;16.932;2022-09-04T05:45:30;100611.06;;;13.98;100.00
45894;BME280;31603;51.148;16.932;2022-09-04T05:48:11;100595.47;;;14.04;100.00
45894;BME280;31603;51.148;16.932;2022-09-04T05:50:51;100625.34;;;14.20;100.00
45894;BME280;31603;51.148;16.932;2022-09-04T05:56:44;100605.66;;;14.35;100.00
45894;BME280;31603;51.148;16.932;2022-09-04T05:59:42;100625.91;;;14.60;100.00
45894;BME280;31603;51.148;16.932;2022-09-04T06:02:42;100633.44;;;15.15;100.00
45894;BME280;31603;51.148;16.932;2022-09-04T06:05:31;100619.75;;;15.20;100.00
45894;BME280;31603;51.148;16.932;2022-09-04T06:08:17;100625.28;;;15.38;100.00
45894;BME280;31603;51.148;16.932;2022-09-04T06:10:59;100641.88;;;15.57;100.00
45894;BME280;31603;51.148;16.932;2022-09-04T06:13:48;100618.34;;;15.66;100.00
45894;BME280;31603;51.148;16.932;2022-09-04T06:16:29;100637.56;;;15.98;100.00
45894;BME280;31603;51.148;16.932;2022-09-04T06:25:18;100615.22;;;16.04;100.00
45894;BME280;31603;51.148;16.932;2022-09-04T06:28:10;100632.94;;;15.92;100.00
45894;BME280;31603;51.148;16.932;2022-09-04T06:30:47;100635.66;;;15.61;100.00
45894;BME280;31603;51.148;16.932;2022-09-04T06:33:26;100632.19;;;15.84;100.00
45894;BME280;31603;51.148;16.932;2022-09-04T06:36:18;100647.16;;;16.25;100.00
45894;BME280;31603;51.148;16.932;2022-09-04T06:39:04;100646.19;;;16.20;100.00
45894;BME280;31603;51.148;16.932;2022-09-04T06:41:49;100598.97;;;16.08;100.00
45894;BME280;31603;51.148;16.932;2022-09-04T06:44:30;100645.13;;;16.32;100.00
45894;BME280;31603;51.148;16.932;2022-09-04T06:47:08;100635.19;;;16.13;100.00
45894;BME280;31603;51.148;16.932;2022-09-04T06:50:01;100634.72;;;16.16;100.00
45894;BME280;31603;51.148;16.932;2022-09-04T06:52:37;100647.03;;;16.20;100.00
45894;BME280;31603;51.148;16.932;2022-09-04T06:55:12;100662.63;;;16.45;100.00
45894;BME280;31603;51.148;16.932;2022-09-04T06:57:58;100668.00;;;16.16;100.00
45894;BME280;31603;51.148;16.932;2022-09-04T07:00:32;100645.44;;;16.12;100.00
45894;BME280;31603;51.148;16.932;2022-09-04T07:03:12;100664.00;;;16.54;100.00
45894;BME280;31603;51.148;16.932;2022-09-04T07:05:52;100669.19;;;16.50;100.00
45894;BME280;31603;51.148;16.932;2022-09-04T07:08:31;100666.69;;;16.72;100.00
45894;BME280;31603;51.148;16.932;2022-09-04T07:11:11;100660.59;;;16.52;100.00
45894;BME280;31603;51.148;16.932;2022-09-04T07:13:52;100669.28;;;16.44;100.00
45894;BME280;31603;51.148;16.932;2022-09-04T07:16:30;100651.09;;;16.59;100.00
45894;BME280;31603;51.148;16.932;2022-09-04T07:19:12;100678.81;;;16.48;100.00
45894;BME280;31603;51.148;16.932;2022-09-04T07:21:51;100669.84;;;16.88;100.00
45894;BME280;31603;51.148;16.932;2022-09-04T07:24:43;100658.88;;;17.16;100.00
45894;BME280;31603;51.148;16.932;2022-09-04T07:27:14;100673.63;;;17.80;100.00
45894;BME280;31603;51.148;16.932;2022-09-04T07:29:48;100670.53;;;18.06;100.00
45894;BME280;31603;51.148;16.932;2022-09-04T07:32:20;100664.69;;;17.78;100.00
45894;BME280;31603;51.148;16.932;2022-09-04T07:34:54;100618.84;;;17.17;100.00
45894;BME280;31603;51.148;16.932;2022-09-04T07:37:32;100677.94;;;17.36;100.00
45894;BME280;31603;51.148;16.932;2022-09-04T07:40:07;100680.94;;;17.58;100.00
45894;BME280;31603;51.148;16.932;2022-09-04T07:42:40;100639.53;;;16.98;100.00
45894;BME280;31603;51.148;16.932;2022-09-04T07:45:21;100666.72;;;17.19;100.00
45894;BME280;31603;51.148;16.932;2022-09-04T07:48:00;100620.47;;;17.53;100.00
45894;BME280;31603;51.148;16.932;2022-09-04T07:50:32;100674.06;;;18.46;100.00
45894;BME280;31603;51.148;16.932;2022-09-04T07:53:15;100629.09;;;18.38;100.00
45894;BME280;31603;51.148;16.932;2022-09-04T07:55:48;100675.84;;;18.69;100.00
45894;BME280;31603;51.148;16.932;2022-09-04T08:01:52;100677.00;;;18.85;100.00
45894;BME280;31603;51.148;16.932;2022-09-04T08:07:37;100688.88;;;19.14;100.00
45894;BME280;31603;51.148;16.932;2022-09-04T08:10:21;100687.75;;;19.32;100.00
45894;BME280;31603;51.148;16.932;2022-09-04T08:13:02;100689.47;;;19.55;100.00
45894;BME280;31603;51.148;16.932;2022-09-04T08:15:39;100681.91;;;19.34;100.00
45894;BME280;31603;51.148;16.932;2022-09-04T08:18:31;100687.50;;;19.73;100.00
45894;BME280;31603;51.148;16.932;2022-09-04T08:21:13;100711.13;;;20.36;100.00
45894;BME280;31603;51.148;16.932;2022-09-04T08:27:07;100728.16;;;20.61;100.00
45894;BME280;31603;51.148;16.932;2022-09-04T08:29:44;100715.03;;;20.62;100.00
45894;BME280;31603;51.148;16.932;2022-09-04T08:32:40;100708.91;;;20.92;100.00
45894;BME280;31603;51.148;16.932;2022-09-04T08:35:16;100704.91;;;20.83;100.00
45894;BME280;31603;51.148;16.932;2022-09-04T08:38:00;100708.00;;;20.86;100.00
45894;BME280;31603;51.148;16.932;2022-09-04T08:41:01;100726.63;;;20.76;100.00
45894;BME280;31603;51.148;16.932;2022-09-04T08:43:51;100718.31;;;21.50;100.00
45894;BME280;31603;51.148;16.932;2022-09-04T08:46:35;100730.84;;;21.43;100.00
45894;BME280;31603;51.148;16.932;2022-09-04T08:52:32;100707.13;;;21.55;100.00
45894;BME280;31603;51.148;16.932;2022-09-04T08:55:32;100737.16;;;21.70;100.00
45894;BME280;31603;51.148;16.932;2022-09-04T08:58:34;100729.03;;;21.69;100.00
45894;BME280;31603;51.148;16.932;2022-09-04T09:01:38;100701.34;;;22.45;100.00
45894;BME280;31603;51.148;16.932;2022-09-04T09:04:37;100743.94;;;22.52;100.00
45894;BME280;31603;51.148;16.932;2022-09-04T09:07:32;100734.19;;;22.80;100.00
45894;BME280;31603;51.148;16.932;2022-09-04T09:10:32;100731.63;;;22.69;100.00
45894;BME280;31603;51.148;16.932;2022-09-04T09:16:22;100732.25;;;22.96;100.00
45894;BME280;31603;51.148;16.932;2022-09-04T09:22:06;100740.91;;;23.41;100.00
45894;BME280;31603;51.148;16.932;2022-09-04T09:24:58;100745.97;;;23.34;100.00
45894;BME280;31603;51.148;16.932;2022-09-04T09:28:05;100747.94;;;23.43;100.00
45894;BME280;31603;51.148;16.932;2022-09-04T09:31:03;100734.78;;;23.13;100.00
45894;BME280;31603;51.148;16.932;2022-09-04T09:37:26;100746.81;;;23.49;100.00
45894;BME280;31603;51.148;16.932;2022-09-04T09:43:15;100751.06;;;24.22;100.00
45894;BME280;31603;51.148;16.932;2022-09-04T09:46:20;100754.81;;;24.02;100.00
45894;BME280;31603;51.148;16.932;2022-09-04T09:52:12;100753.28;;;24.40;100.00
45894;BME280;31603;51.148;16.932;2022-09-04T09:55:01;100736.00;;;24.62;100.00
45894;BME280;31603;51.148;16.932;2022-09-04T10:00:49;100749.44;;;24.65;98.63
45894;BME280;31603;51.148;16.932;2022-09-04T10:03:54;100757.94;;;25.39;93.00
45894;BME280;31603;51.148;16.932;2022-09-04T10:06:51;100697.50;;;24.92;95.56
45894;BME280;31603;51.148;16.932;2022-09-04T10:12:58;100720.81;;;25.32;88.36
45894;BME280;31603;51.148;16.932;2022-09-04T10:16:00;100745.94;;;26.05;85.68
45894;BME280;31603;51.148;16.932;2022-09-04T10:19:03;100738.09;;;25.20;86.43
45894;BME280;31603;51.148;16.932;2022-09-04T10:21:56;100753.16;;;26.35;78.37
45894;BME280;31603;51.148;16.932;2022-09-04T10:24:59;100738.22;;;25.63;85.12
45894;BME280;31603;51.148;16.932;2022-09-04T10:28:19;100738.94;;;26.83;75.32
45894;BME280;31603;51.148;16.932;2022-09-04T10:34:03;100737.53;;;25.76;83.94
45894;BME280;31603;51.148;16.932;2022-09-04T10:36:43;100743.50;;;26.41;73.73
45894;BME280;31603;51.148;16.932;2022-09-04T10:39:22;100740.34;;;26.67;73.08
45894;BME280;31603;51.148;16.932;2022-09-04T10:42:49;100751.75;;;26.95;75.13
45894;BME280;31603;51.148;16.932;2022-09-04T10:45:24;100734.31;;;26.74;75.78
45894;BME280;31603;51.148;16.932;2022-09-04T10:48:24;100736.44;;;26.20;78.25
45894;BME280;31603;51.148;16.932;2022-09-04T10:51:16;100709.66;;;26.41;71.76
45894;BME280;31603;51.148;16.932;2022-09-04T10:54:12;100699.50;;;25.79;80.64
45894;BME280;31603;51.148;16.932;2022-09-04T10:56:48;100737.44;;;26.91;77.27
45894;BME280;31603;51.148;16.932;2022-09-04T10:59:35;100742.31;;;27.83;65.44
45894;BME280;31603;51.148;16.932;2022-09-04T11:02:24;100722.06;;;28.18;60.69
45894;BME280;31603;51.148;16.932;2022-09-04T11:05:12;100728.38;;;27.08;66.02
45894;BME280;31603;51.148;16.932;2022-09-04T11:07:55;100736.72;;;27.18;67.08
45894;BME280;31603;51.148;16.932;2022-09-04T11:10:43;100737.56;;;27.00;68.90
45894;BME280;31603;51.148;16.932;2022-09-04T11:13:43;100730.63;;;26.92;70.51
45894;BME280;31603;51.148;16.932;2022-09-04T11:16:25;100714.81;;;26.34;69.58
45894;BME280;31603;51.148;16.932;2022-09-04T11:22:22;100729.41;;;28.33;58.94
45894;BME280;31603;51.148;16.932;2022-09-04T11:25:21;100731.50;;;28.41;53.92
45894;BME280;31603;51.148;16.932;2022-09-04T11:31:30;100720.09;;;28.68;59.75
45894;BME280;31603;51.148;16.932;2022-09-04T11:37:32;100681.94;;;28.43;56.03
45894;BME280;31603;51.148;16.932;2022-09-04T11:40:36;100716.22;;;29.54;50.06
45894;BME280;31603;51.148;16.932;2022-09-04T11:43:25;100707.91;;;29.04;55.93
45894;BME280;31603;51.148;16.932;2022-09-04T11:46:24;100718.94;;;29.99;50.42
45894;BME280;31603;51.148;16.932;2022-09-04T11:49:11;100709.84;;;29.17;53.38
45894;BME280;31603;51.148;16.932;2022-09-04T11:52:05;100710.31;;;29.11;52.07
45894;BME280;31603;51.148;16.932;2022-09-04T11:54:52;100720.72;;;28.15;58.69
45894;BME280;31603;51.148;16.932;2022-09-04T11:57:32;100714.59;;;28.36;55.55
45894;BME280;31603;51.148;16.932;2022-09-04T12:00:08;100721.06;;;28.86;53.12
45894;BME280;31603;51.148;16.932;2022-09-04T12:02:54;100732.31;;;29.45;51.90
45894;BME280;31603;51.148;16.932;2022-09-04T12:05:42;100728.16;;;28.97;56.67
45894;BME280;31603;51.148;16.932;2022-09-04T12:08:26;100720.03;;;30.20;47.71
45894;BME280;31603;51.148;16.932;2022-09-04T12:11:11;100705.13;;;29.35;50.93
45894;BME280;31603;51.148;16.932;2022-09-04T12:14:02;100707.50;;;29.19;54.32
45894;BME280;31603;51.148;16.932;2022-09-04T12:23:09;100701.47;;;30.14;45.11
45894;BME280;31603;51.148;16.932;2022-09-04T12:29:05;100677.75;;;28.41;53.01
45894;BME280;31603;51.148;16.932;2022-09-04T12:31:44;100690.06;;;27.95;56.38
45894;BME280;31603;51.148;16.932;2022-09-04T12:34:33;100696.50;;;27.54;62.77
45894;BME280;31603;51.148;16.932;2022-09-04T12:37:18;100702.00;;;26.99;64.02
45894;BME280;31603;51.148;16.932;2022-09-04T12:40:05;100682.81;;;26.82;66.64
45894;BME280;31603;51.148;16.932;2022-09-04T12:42:45;100694.06;;;26.25;71.02
45894;BME280;31603;51.148;16.932;2022-09-04T12:45:20;100701.78;;;27.14;66.51
45894;BME280;31603;51.148;16.932;2022-09-04T12:47:59;100708.00;;;26.78;69.38
45894;BME280;31603;51.148;16.932;2022-09-04T12:50:39;100671.53;;;27.15;68.81
45894;BME280;31603;51.148;16.932;2022-09-04T12:53:38;100713.34;;;28.28;60.02
45894;BME280;31603;51.148;16.932;2022-09-04T12:56:11;100642.50;;;26.95;63.31
45894;BME280;31603;51.148;16.932;2022-09-04T12:58:53;100715.78;;;27.66;66.69
45894;BME280;31603;51.148;16.932;2022-09-04T13:01:31;100715.41;;;28.64;59.91
45894;BME280;31603;51.148;16.932;2022-09-04T13:04:10;100723.53;;;29.46;54.69
45894;BME280;31603;51.148;16.932;2022-09-04T13:06:45;100721.06;;;30.42;49.63
45894;BME280;31603;51.148;16.932;2022-09-04T13:09:20;100726.78;;;31.11;46.71
45894;BME280;31603;51.148;16.932;2022-09-04T13:11:56;100709.88;;;30.37;47.24
45894;BME280;31603;51.148;16.932;2022-09-04T13:14:50;100668.16;;;29.71;47.34
45894;BME280;31603;51.148;16.932;2022-09-04T13:17:25;100717.44;;;28.49;55.60
45894;BME280;31603;51.148;16.932;2022-09-04T13:20:03;100697.22;;;28.28;55.39
45894;BME280;31603;51.148;16.932;2022-09-04T13:22:47;100673.94;;;27.81;59.75
45894;BME280;31603;51.148;16.932;2022-09-04T13:25:30;100722.84;;;27.35;65.34
45894;BME280;31603;51.148;16.932;2022-09-04T13:28:10;100730.53;;;28.31;58.39
45894;BME280;31603;51.148;16.932;2022-09-04T13:30:45;100727.91;;;28.21;55.90
45894;BME280;31603;51.148;16.932;2022-09-04T13:33:24;100730.03;;;28.02;58.22
45894;BME280;31603;51.148;16.932;2022-09-04T13:36:10;100728.16;;;28.97;50.97
45894;BME280;31603;51.148;16.932;2022-09-04T13:39:00;100736.56;;;29.87;46.13
45894;BME280;31603;51.148;16.932;2022-09-04T13:41:57;100728.00;;;29.16;46.11
45894;BME280;31603;51.148;16.932;2022-09-04T13:44:50;100739.72;;;28.65;50.58
45894;BME280;31603;51.148;16.932;2022-09-04T13:47:27;100747.31;;;28.78;52.26
45894;BME280;31603;51.148;16.932;2022-09-04T13:50:02;100754.88;;;30.87;42.64
45894;BME280;31603;51.148;16.932;2022-09-04T13:52:35;100731.75;;;30.45;41.81
45894;BME280;31603;51.148;16.932;2022-09-04T13:55:05;100749.19;;;31.04;40.91
45894;BME280;31603;51.148;16.932;2022-09-04T13:57:38;100752.81;;;31.48;40.29
45894;BME280;31603;51.148;16.932;2022-09-04T14:00:07;100728.78;;;30.67;40.40
45894;BME280;31603;51.148;16.932;2022-09-04T14:02:36;100708.06;;;29.30;44.68
45894;BME280;31603;51.148;16.932;2022-09-04T14:05:06;100739.09;;;29.58;46.04
45894;BME280;31603;51.148;16.932;2022-09-04T14:07:36;100755.59;;;30.35;42.77
45894;BME280;31603;51.148;16.932;2022-09-04T14:10:09;100743.59;;;29.90;44.16
45894;BME280;31603;51.148;16.932;2022-09-04T14:13:03;100735.97;;;28.92;47.43
45894;BME280;31603;51.148;16.932;2022-09-04T14:15:56;100728.75;;;28.86;48.07
45894;BME280;31603;51.148;16.932;2022-09-04T14:18:44;100745.16;;;28.61;48.92
45894;BME280;31603;51.148;16.932;2022-09-04T14:21:19;100738.66;;;28.11;51.52
45894;BME280;31603;51.148;16.932;2022-09-04T14:23:56;100740.81;;;28.41;52.06
45894;BME280;31603;51.148;16.932;2022-09-04T14:26:33;100709.06;;;29.25;46.30
45894;BME280;31603;51.148;16.932;2022-09-04T14:29:12;100727.91;;;28.21;49.66
45894;BME280;31603;51.148;16.932;2022-09-04T14:31:51;100746.38;;;28.33;52.61
45894;BME280;31603;51.148;16.932;2022-09-04T14:34:41;100698.81;;;28.21;51.75
45894;BME280;31603;51.148;16.932;2022-09-04T14:37:23;100712.16;;;27.93;53.76
45894;BME280;31603;51.148;16.932;2022-09-04T14:40:24;100735.91;;;27.92;54.88
45894;BME280;31603;51.148;16.932;2022-09-04T14:43:09;100723.09;;;27.53;56.49
45894;BME280;31603;51.148;16.932;2022-09-04T14:45:57;100621.63;;;27.10;57.38
45894;BME280;31603;51.148;16.932;2022-09-04T14:48:32;100656.75;;;28.05;52.64
45894;BME280;31603;51.148;16.932;2022-09-04T14:51:13;100700.88;;;28.43;49.84
45894;BME280;31603;51.148;16.932;2022-09-04T14:53:50;100716.44;;;27.76;55.01
45894;BME280;31603;51.148;16.932;2022-09-04T14:56:27;100719.66;;;27.23;59.66
45894;BME280;31603;51.148;16.932;2022-09-04T14:59:14;100704.88;;;27.45;58.53
45894;BME280;31603;51.148;16.932;2022-09-04T15:02:16;100674.50;;;28.34;52.81
45894;BME280;31603;51.148;16.932;2022-09-04T15:05:02;100650.63;;;28.40;49.68
45894;BME280;31603;51.148;16.932;2022-09-04T15:07:50;100699.88;;;29.51;48.94